Terminal Aerodrome Forecast
Issued by NWS Mt. Holly, NJ

Home | Current Version | Previous Version | Text Only | Print | Product List | Glossary On
Versions: 1 2 3 4 5 6 7 8 9 10 11 12 13 14 15 16
000
FTUS41 KPHI 271514 AAB
TAFACY
TAF AMD
KACY 271514Z 2715/2812 19010G20KT P6SM SCT020 SCT080
     FM271900 17014G23KT P6SM BKN045
     FM280000 19012KT P6SM SCT120
     FM280800 19005KT P6SM SCT008=

USA.gov is the U.S. government's official web portal to all federal, state and local government web resources and services.